Time;durP1;ratioP1;P1;durP2;ratioP2;P2;SDS_P1;SDS_P2;PMS_P1;PMS_P2;Temp;Humidity;BMP_temperature;BMP_pressure;BME280_temperature;BME280_humidity;BME280_pressure;Samples;Min_cycle;Max_cycle;Signal;HPM_P1;HPM_P2
2024/04/09 00:01:24;;;;;;;;;;;19.00;99.90;;;18.28;100.00;96526.53;5425980;26;1987;-69
2024/04/09 00:03:51;;;;;;;;;;;18.90;99.30;;;18.26;100.00;96511.88;5421373;26;1943;-69
2024/04/09 00:06:19;;;;;;;;;;;19.00;99.10;;;18.17;100.00;96531.91;5424827;26;2180;-69
2024/04/09 00:08:47;;;;;;;;;;;19.00;99.90;;;17.93;100.00;96533.16;5426708;26;1999;-69
2024/04/09 00:11:21;;;;;;;;;;;18.90;99.90;;;17.97;100.00;96518.78;5432050;26;1940;-68
2024/04/09 00:13:49;;;;;;;;;;;18.80;99.90;;;17.78;100.00;96543.16;5433563;26;1642;-71
2024/04/09 00:16:15;;;;;;;;;;;18.80;99.90;;;17.83;100.00;96542.78;5425288;26;1868;-70
2024/04/09 00:18:42;;;;;;;;;;;18.70;99.90;;;17.82;100.00;96538.53;5428191;26;3693;-71
2024/04/09 00:21:09;;;;;;;;;;;18.60;99.90;;;17.75;100.00;96545.25;5435695;26;1612;-71
2024/04/09 00:23:36;;;;;;;;;;;18.60;99.90;;;17.59;100.00;96545.75;5437426;26;1640;-71
2024/04/09 00:26:03;;;;;;;;;;;18.50;99.90;;;17.68;100.00;96537.09;5432931;26;1777;-70
2024/04/09 00:28:30;;;;;;;;;;;18.40;99.90;;;17.58;100.00;96536.22;5434780;26;1557;-71
2024/04/09 00:30:57;;;;;;;;;;;18.40;99.90;;;17.55;100.00;96536.50;5431344;26;1604;-71
2024/04/09 00:33:25;;;;;;;;;;;18.40;99.90;;;17.62;100.00;96526.28;5432253;26;2235;-71
2024/04/09 00:35:53;;;;;;;;;;;18.30;99.90;;;17.65;100.00;96524.25;5431233;26;1837;-70
2024/04/09 00:38:23;;;;;;;;;;;18.30;99.90;;;17.65;100.00;96528.63;5426441;26;1576;-70
2024/04/09 00:40:50;;;;;;;;;;;18.30;99.90;;;17.66;100.00;96510.16;5432461;26;1664;-70
2024/04/09 00:43:17;;;;;;;;;;;18.30;99.90;;;17.73;100.00;96505.19;5432678;26;1617;-70
2024/04/09 00:45:44;;;;;;;;;;;18.40;99.90;;;17.91;100.00;96503.56;5425466;26;1610;-70
2024/04/09 00:48:12;;;;;;;;;;;18.40;99.90;;;17.95;100.00;96485.78;5424593;26;2339;-70
2024/04/09 00:50:45;;;;;;;;;;;18.50;99.90;;;18.28;100.00;96484.50;5433068;26;1627;-70
2024/04/09 00:53:12;;;;;;;;;;;18.70;98.90;;;18.64;100.00;96458.44;5424758;26;1607;-70
2024/04/09 00:55:42;;;;;;;;;;;19.00;97.00;;;19.24;100.00;96431.75;5423946;26;1837;-71
2024/04/09 00:58:11;;;;;;;;;;;19.30;95.50;;;19.50;100.00;96431.91;5422989;26;1608;-69
2024/04/09 01:00:40;;;;;;;;;;;19.60;94.50;;;19.46;100.00;96420.00;5428472;26;3892;-71
2024/04/09 01:03:09;;;;;;;;;;;19.80;94.60;;;19.79;100.00;96399.28;5432134;26;1795;-71
2024/04/09 01:05:37;;;;;;;;;;;20.00;93.50;;;19.68;100.00;96400.28;5431955;26;1601;-69
2024/04/09 01:08:05;;;;;;;;;;;20.10;93.60;;;19.81;100.00;96398.13;5437239;26;1539;-71
2024/04/09 01:10:32;;;;;;;;;;;20.20;93.10;;;19.65;100.00;96413.78;5427710;26;1458;-68
2024/04/09 01:12:59;;;;;;;;;;;20.30;93.50;;;19.69;100.00;96416.97;5431091;26;1874;-71
2024/04/09 01:15:27;;;;;;;;;;;20.20;93.40;;;19.68;100.00;96413.47;5429694;26;2292;-71
2024/04/09 01:17:56;;;;;;;;;;;20.30;93.10;;;19.78;100.00;96401.09;5426317;26;1556;-71
2024/04/09 01:20:23;;;;;;;;;;;20.30;92.90;;;19.85;100.00;96403.94;5426585;26;1607;-70
2024/04/09 01:22:50;;;;;;;;;;;20.30;92.30;;;19.76;100.00;96412.75;5436228;26;1416;-70
2024/04/09 01:25:17;;;;;;;;;;;20.30;92.50;;;19.88;100.00;96421.25;5428233;26;1703;-69
2024/04/09 01:27:44;;;;;;;;;;;20.30;92.20;;;19.79;100.00;96423.78;5430623;26;1850;-69
2024/04/09 01:30:12;;;;;;;;;;;20.30;92.50;;;19.58;100.00;96436.41;5429852;26;1465;-70
2024/04/09 01:32:40;;;;;;;;;;;20.20;92.60;;;19.60;100.00;96447.63;5427504;26;2528;-70
2024/04/09 01:35:08;;;;;;;;;;;20.20;92.50;;;19.64;100.00;96441.91;5433673;26;1604;-71
2024/04/09 01:37:36;;;;;;;;;;;20.10;92.30;;;19.54;100.00;96440.31;5426009;26;1865;-70
2024/04/09 01:40:04;;;;;;;;;;;20.20;92.50;;;19.47;100.00;96441.88;5455735;26;1536;-70
2024/04/09 01:42:31;;;;;;;;;;;20.10;92.50;;;19.55;100.00;96432.28;5437099;26;1736;-70
2024/04/09 01:44:58;;;;;;;;;;;20.10;92.30;;;19.42;100.00;96435.25;5430632;26;1580;-69
2024/04/09 01:47:26;;;;;;;;;;;20.10;92.30;;;19.57;100.00;96425.06;5434723;26;3859;-71
2024/04/09 01:49:53;;;;;;;;;;;20.10;92.00;;;19.39;100.00;96425.03;5427566;26;1618;-71
2024/04/09 01:52:20;;;;;;;;;;;20.00;92.20;;;19.30;100.00;96436.44;5428392;26;1703;-70
2024/04/09 01:54:50;;;;;;;;;;;20.00;92.50;;;19.24;100.00;96442.28;5424738;26;1576;-68
2024/04/09 01:57:17;;;;;;;;;;;19.90;92.40;;;19.10;100.00;96459.38;5427488;26;1837;-70
2024/04/09 01:59:43;;;;;;;;;;;19.80;92.60;;;19.36;100.00;96461.31;5429116;26;1647;-71
2024/04/09 02:02:10;;;;;;;;;;;19.80;92.30;;;19.21;100.00;96482.06;5427241;26;2346;-71
2024/04/09 02:04:37;;;;;;;;;;;19.70;92.50;;;19.07;100.00;96482.50;5430254;26;1582;-70
2024/04/09 02:07:04;;;;;;;;;;;19.60;92.60;;;19.28;100.00;96504.16;5425514;26;1675;-70
2024/04/09 02:09:31;;;;;;;;;;;19.70;92.40;;;19.12;100.00;96503.97;5430267;26;1602;-71
2024/04/09 02:11:58;;;;;;;;;;;19.60;92.70;;;18.86;100.00;96502.00;5429489;26;1637;-70
2024/04/09 02:14:25;;;;;;;;;;;19.60;93.00;;;19.04;100.00;96536.22;5436815;26;2187;-70
2024/04/09 02:16:55;;;;;;;;;;;19.50;92.80;;;18.92;100.00;96540.84;5422047;26;1886;-70
2024/04/09 02:19:23;;;;;;;;;;;19.40;93.10;;;18.74;100.00;96534.63;5430792;26;1663;-70
2024/04/09 02:21:51;;;;;;;;;;;19.40;93.40;;;18.76;100.00;96548.47;5425490;26;1328;-70
2024/04/09 02:24:18;;;;;;;;;;;19.30;93.50;;;18.51;100.00;96557.75;5427559;26;1578;-70
2024/04/09 02:26:44;;;;;;;;;;;19.20;93.90;;;18.39;100.00;96571.03;5423497;26;1594;-70
2024/04/09 02:29:11;;;;;;;;;;;19.00;94.10;;;18.41;100.00;96563.03;5426539;26;3490;-70
2024/04/09 02:31:40;;;;;;;;;;;18.90;94.30;;;18.30;100.00;96564.00;5430655;26;1583;-70
2024/04/09 02:34:06;;;;;;;;;;;18.90;94.70;;;18.21;100.00;96604.22;5429737;26;1524;-70
2024/04/09 02:36:33;;;;;;;;;;;18.70;95.00;;;18.18;100.00;96626.34;5428111;26;1844;-70
2024/04/09 02:39:00;;;;;;;;;;;18.60;95.30;;;18.12;100.00;96613.75;5432269;26;1802;-70
2024/04/09 02:41:27;;;;;;;;;;;18.60;95.80;;;17.87;100.00;96630.81;5424937;26;1491;-70
2024/04/09 02:43:54;;;;;;;;;;;18.40;96.40;;;17.72;100.00;96646.09;5425859;26;2375;-70
2024/04/09 02:46:21;;;;;;;;;;;18.10;97.40;;;17.34;100.00;96676.41;5435185;26;1469;-69
2024/04/09 02:48:47;;;;;;;;;;;18.00;98.20;;;17.20;100.00;96708.22;5426951;26;1652;-69
2024/04/09 02:51:15;;;;;;;;;;;17.70;98.80;;;16.94;100.00;96705.13;5427605;26;2479;-70
2024/04/09 02:53:42;;;;;;;;;;;17.50;99.50;;;16.60;100.00;96749.75;5430346;26;1414;-70
2024/04/09 02:56:11;;;;;;;;;;;17.30;99.90;;;16.72;100.00;96708.66;5420976;26;2484;-69
2024/04/09 02:58:39;;;;;;;;;;;17.20;99.90;;;16.52;100.00;96728.59;5428140;26;1573;-70
2024/04/09 03:01:07;;;;;;;;;;;17.10;99.90;;;16.43;100.00;96735.41;5425650;26;1616;-70
2024/04/09 03:03:35;;;;;;;;;;;16.90;99.90;;;16.38;100.00;96765.53;5433521;26;1740;-70
2024/04/09 03:06:11;;;;;;;;;;;16.80;99.90;;;16.17;100.00;96734.84;5428338;26;1517;-70
2024/04/09 03:08:39;;;;;;;;;;;16.80;99.90;;;16.07;100.00;96752.22;5428495;26;1484;-69
2024/04/09 03:11:14;;;;;;;;;;;16.80;99.90;;;15.96;100.00;96731.28;5424019;26;4047;-69
2024/04/09 03:13:42;;;;;;;;;;;16.60;99.90;;;15.84;100.00;96760.06;5427122;26;1589;-70
2024/04/09 03:16:13;;;;;;;;;;;16.60;99.90;;;15.93;100.00;96758.53;5436256;26;1837;-69
2024/04/09 03:18:40;;;;;;;;;;;16.50;99.90;;;15.75;100.00;96759.94;5420954;26;1640;-70
2024/04/09 03:21:07;;;;;;;;;;;16.60;99.90;;;15.74;100.00;96760.91;5403489;26;1863;-70
2024/04/09 03:23:34;;;;;;;;;;;16.50;99.90;;;15.77;100.00;96748.41;5433809;26;1512;-70
2024/04/09 03:26:01;;;;;;;;;;;16.40;99.90;;;15.64;100.00;96763.34;5424539;26;2432;-70
2024/04/09 03:28:28;;;;;;;;;;;16.30;99.90;;;15.64;100.00;96763.34;5420919;26;1579;-70
2024/04/09 03:30:56;;;;;;;;;;;16.20;99.90;;;15.58;100.00;96758.59;5422795;26;1752;-70
2024/04/09 03:33:23;;;;;;;;;;;16.20;99.90;;;15.66;100.00;96749.19;5417993;26;1580;-69
2024/04/09 03:35:55;;;;;;;;;;;16.20;99.90;;;15.52;100.00;96752.03;5425186;26;1607;-70
2024/04/09 03:38:22;;;;;;;;;;;16.20;99.90;;;15.46;100.00;96762.94;5424721;26;1937;-70
2024/04/09 03:41:03;;;;;;;;;;;16.10;99.90;;;15.35;100.00;96766.38;5430565;26;2748;-70
2024/04/09 03:43:31;;;;;;;;;;;16.10;99.90;;;15.38;100.00;96767.94;5426134;26;1574;-70
2024/04/09 03:46:08;;;;;;;;;;;16.10;99.90;;;15.34;100.00;96771.72;5422657;26;1585;-70
2024/04/09 03:48:46;;;;;;;;;;;16.10;99.90;;;15.24;100.00;96788.09;5427031;26;1525;-70
2024/04/09 03:51:15;;;;;;;;;;;16.00;99.90;;;15.21;100.00;96811.84;5424742;26;1573;-70
2024/04/09 03:53:45;;;;;;;;;;;16.00;99.90;;;15.33;100.00;96825.81;5456449;26;3870;-70
2024/04/09 03:56:12;;;;;;;;;;;15.80;99.90;;;15.27;100.00;96819.22;5425679;26;1678;-70
2024/04/09 03:58:45;;;;;;;;;;;15.80;99.90;;;15.13;100.00;96831.66;5431481;26;1497;-70
2024/04/09 04:01:12;;;;;;;;;;;15.70;99.90;;;15.12;100.00;96843.91;5453753;26;1512;-70
2024/04/09 04:03:40;;;;;;;;;;;15.70;99.90;;;15.09;100.00;96859.78;5423652;26;1620;-70
2024/04/09 04:06:08;;;;;;;;;;;15.60;99.90;;;14.74;100.00;96872.78;5427625;26;1591;-69
2024/04/09 04:08:37;;;;;;;;;;;15.60;99.90;;;14.63;100.00;96889.19;5436663;26;2349;-70
2024/04/09 04:11:06;;;;;;;;;;;15.30;99.90;;;14.48;100.00;96911.94;5431038;26;1552;-70
2024/04/09 04:13:35;;;;;;;;;;;15.20;99.90;;;14.42;100.00;96896.72;5428697;26;1672;-70
2024/04/09 04:16:04;;;;;;;;;;;15.20;99.90;;;14.42;100.00;96913.19;5425279;26;1581;-70
2024/04/09 04:18:39;;;;;;;;;;;15.00;99.90;;;14.34;100.00;96927.72;5424488;26;1976;-70
2024/04/09 04:21:13;;;;;;;;;;;15.00;99.90;;;14.21;100.00;96925.13;5426202;26;2192;-70
2024/04/09 04:23:41;;;;;;;;;;;14.90;99.90;;;14.24;100.00;96927.50;5426709;26;2244;-70
2024/04/09 04:26:13;;;;;;;;;;;14.70;99.90;;;14.16;100.00;96948.91;5428473;26;1535;-70
2024/04/09 04:28:42;;;;;;;;;;;14.70;99.90;;;14.08;100.00;96937.31;5431424;26;1594;-70
2024/04/09 04:31:10;;;;;;;;;;;14.70;99.90;;;14.13;100.00;96953.50;5423561;26;1580;-69
2024/04/09 04:33:38;;;;;;;;;;;14.70;99.90;;;14.09;100.00;96958.06;5425479;26;1595;-70
2024/04/09 04:36:07;;;;;;;;;;;14.60;99.90;;;14.04;100.00;96965.38;5430783;26;3823;-70
2024/04/09 04:38:34;;;;;;;;;;;14.60;99.90;;;13.96;100.00;96997.22;5428274;26;1939;-69
2024/04/09 04:41:02;;;;;;;;;;;14.40;99.90;;;13.86;100.00;97001.34;5428905;26;1683;-70
2024/04/09 04:43:30;;;;;;;;;;;14.40;99.90;;;13.70;100.00;97013.69;5434702;26;1697;-70
2024/04/09 04:45:57;;;;;;;;;;;14.40;99.90;;;13.75;100.00;97025.53;5439839;26;1734;-70
2024/04/09 04:48:24;;;;;;;;;;;14.30;99.90;;;13.78;100.00;97034.94;5429465;26;1741;-70
2024/04/09 04:50:52;;;;;;;;;;;14.30;99.90;;;13.74;100.00;97042.09;5430078;26;2690;-70
2024/04/09 04:53:19;;;;;;;;;;;14.20;99.90;;;13.73;100.00;97048.25;5436460;26;1596;-70
2024/04/09 04:55:47;;;;;;;;;;;14.20;99.90;;;13.64;100.00;97050.59;5438865;26;2763;-70
2024/04/09 04:58:13;;;;;;;;;;;14.20;99.90;;;13.57;100.00;97061.44;5434691;26;1970;-70
2024/04/09 05:00:40;;;;;;;;;;;14.20;99.90;;;13.46;100.00;97035.19;5429302;26;1389;-70
2024/04/09 05:03:09;;;;;;;;;;;14.10;99.90;;;13.38;100.00;97059.13;5430096;26;1370;-70
2024/04/09 05:05:37;;;;;;;;;;;14.00;99.90;;;13.33;100.00;97073.38;5435853;26;1396;-70
2024/04/09 05:08:04;;;;;;;;;;;13.90;99.90;;;13.32;100.00;97101.22;5439041;26;1312;-70
2024/04/09 05:10:31;;;;;;;;;;;13.80;99.90;;;13.32;100.00;97100.38;5432784;26;2162;-70
2024/04/09 05:12:59;;;;;;;;;;;13.80;99.90;;;13.25;100.00;97086.88;5398833;26;2048;-70
2024/04/09 05:15:26;;;;;;;;;;;13.80;99.90;;;13.30;100.00;97100.47;5425667;26;1837;-69
2024/04/09 05:17:57;;;;;;;;;;;13.70;99.90;;;13.23;100.00;97088.72;5429851;26;1838;-70
2024/04/09 05:20:28;;;;;;;;;;;13.70;99.90;;;13.14;100.00;97091.91;5430931;26;1457;-71
2024/04/09 05:22:58;;;;;;;;;;;13.70;99.90;;;13.09;100.00;97088.69;5425530;26;1400;-69
2024/04/09 05:25:32;;;;;;;;;;;13.70;99.90;;;13.08;100.00;97102.69;5435060;26;3944;-70
2024/04/09 05:27:59;;;;;;;;;;;13.70;99.90;;;13.00;100.00;97084.91;5422281;26;1116;-69
2024/04/09 05:30:26;;;;;;;;;;;13.60;99.90;;;12.95;100.00;97108.63;5426311;26;1567;-70
2024/04/09 05:32:53;;;;;;;;;;;13.60;99.90;;;13.02;100.00;97118.66;5430834;26;2920;-70
2024/04/09 05:35:20;;;;;;;;;;;13.50;99.90;;;12.85;100.00;97130.94;5428843;26;1661;-70
2024/04/09 05:37:47;;;;;;;;;;;13.50;99.90;;;12.81;100.00;97139.84;5431590;26;1880;-70
2024/04/09 05:40:14;;;;;;;;;;;13.50;99.90;;;12.83;100.00;97147.59;5424321;26;1456;-70
2024/04/09 05:42:43;;;;;;;;;;;13.50;99.90;;;12.86;100.00;97150.81;5426833;26;1515;-69
2024/04/09 05:45:12;;;;;;;;;;;13.30;99.90;;;12.75;100.00;97154.09;5450566;26;2468;-69
2024/04/09 05:47:42;;;;;;;;;;;13.30;99.90;;;12.86;100.00;97168.22;5428887;26;3060;-70
2024/04/09 05:50:10;;;;;;;;;;;13.30;99.90;;;12.82;100.00;97179.75;5429538;26;1262;-69
2024/04/09 05:52:37;;;;;;;;;;;13.40;99.90;;;12.86;100.00;97179.47;5429516;26;1693;-70
2024/04/09 05:55:05;;;;;;;;;;;13.40;99.90;;;12.89;100.00;97194.94;5426009;26;1483;-69
2024/04/09 05:57:36;;;;;;;;;;;13.30;99.90;;;12.79;100.00;97195.56;5437610;26;1861;-69
2024/04/09 06:00:11;;;;;;;;;;;13.30;99.90;;;12.48;100.00;97205.97;5424143;26;2302;-70
2024/04/09 06:02:41;;;;;;;;;;;13.20;99.90;;;12.27;100.00;97220.16;5422030;26;1091;-69
2024/04/09 06:05:08;;;;;;;;;;;13.10;99.90;;;11.93;100.00;97235.84;5395775;26;1565;-69
2024/04/09 06:07:35;;;;;;;;;;;12.90;99.90;;;11.58;100.00;97275.81;5428601;26;1409;-70
2024/04/09 06:10:03;;;;;;;;;;;12.60;99.90;;;11.27;100.00;97269.59;5432400;26;1362;-69
2024/04/09 06:12:30;;;;;;;;;;;12.30;99.90;;;10.89;100.00;97319.06;5434565;26;1370;-70
2024/04/09 06:14:57;;;;;;;;;;;11.90;99.90;;;10.58;100.00;97333.50;5427484;26;3952;-69
2024/04/09 06:17:24;;;;;;;;;;;11.50;99.90;;;10.42;100.00;97341.16;5432582;26;1891;-69
2024/04/09 06:19:53;;;;;;;;;;;11.40;99.90;;;10.23;100.00;97332.47;5429976;26;1386;-70
2024/04/09 06:22:21;;;;;;;;;;;11.20;99.90;;;10.19;100.00;97359.47;5451314;26;1335;-70
2024/04/09 06:24:48;;;;;;;;;;;11.10;99.90;;;10.09;100.00;97338.28;5427407;26;1211;-70
2024/04/09 06:27:15;;;;;;;;;;;11.00;99.90;;;10.07;100.00;97329.72;5430736;26;1837;-69
2024/04/09 06:29:42;;;;;;;;;;;11.00;99.90;;;10.03;100.00;97343.72;5424762;26;2172;-69
2024/04/09 06:32:10;;;;;;;;;;;10.90;99.90;;;10.09;100.00;97347.81;5425573;26;1222;-70
2024/04/09 06:34:37;;;;;;;;;;;10.90;99.90;;;10.05;100.00;97352.28;5441194;26;1364;-69
2024/04/09 06:37:04;;;;;;;;;;;10.80;99.90;;;10.02;100.00;97368.00;5427537;26;1498;-69
2024/04/09 06:39:31;;;;;;;;;;;10.80;99.90;;;10.19;100.00;97367.25;5427567;26;1303;-69
2024/04/09 06:42:02;;;;;;;;;;;10.90;99.90;;;10.16;100.00;97367.38;5431749;26;1116;-69
2024/04/09 06:44:30;;;;;;;;;;;10.90;99.90;;;10.16;100.00;97372.56;5428385;26;2366;-69
2024/04/09 06:46:58;;;;;;;;;;;11.00;99.90;;;10.16;100.00;97364.78;5430203;26;1365;-70
2024/04/09 06:49:25;;;;;;;;;;;11.00;99.90;;;10.16;100.00;97368.22;5431489;26;1849;-70
2024/04/09 06:51:52;;;;;;;;;;;10.90;99.90;;;10.17;100.00;97379.44;5435221;26;3058;-69
2024/04/09 06:54:19;;;;;;;;;;;10.80;99.90;;;10.11;100.00;97346.84;5426309;26;1258;-69
2024/04/09 06:56:46;;;;;;;;;;;10.80;99.90;;;10.07;100.00;97347.88;5424538;26;1394;-69
2024/04/09 06:59:12;;;;;;;;;;;10.80;99.90;;;10.11;100.00;97335.63;5424551;26;1477;-69
2024/04/09 07:01:39;;;;;;;;;;;10.90;99.90;;;10.26;100.00;97333.19;5432988;26;1209;-70
2024/04/09 07:04:07;;;;;;;;;;;10.90;99.90;;;10.06;100.00;97364.38;5424357;26;1242;-70
2024/04/09 07:06:34;;;;;;;;;;;10.90;99.90;;;10.02;100.00;97355.88;5422629;26;3784;-70
2024/04/09 07:09:03;;;;;;;;;;;10.80;99.90;;;10.03;100.00;97373.13;5421505;26;1870;-70
2024/04/09 07:11:30;;;;;;;;;;;10.80;99.90;;;10.04;100.00;97379.16;5420968;26;1364;-70
2024/04/09 07:13:57;;;;;;;;;;;10.80;99.90;;;9.91;100.00;97377.97;5427213;26;1060;-70
2024/04/09 07:16:24;;;;;;;;;;;10.80;99.90;;;10.12;100.00;97376.19;5423021;26;1553;-70
2024/04/09 07:18:51;;;;;;;;;;;10.80;99.90;;;10.07;100.00;97378.16;5422616;26;2409;-70
2024/04/09 07:21:19;;;;;;;;;;;10.80;99.90;;;9.95;100.00;97341.50;5427275;26;1292;-70
2024/04/09 07:23:47;;;;;;;;;;;10.90;99.90;;;10.11;100.00;97338.22;5424073;26;1239;-69
2024/04/09 07:26:14;;;;;;;;;;;10.90;99.90;;;10.08;100.00;97347.00;5428021;26;1498;-69
2024/04/09 07:28:41;;;;;;;;;;;10.60;99.90;;;9.93;100.00;97316.53;5393417;26;1892;-69
2024/04/09 07:31:10;;;;;;;;;;;10.60;99.90;;;9.97;100.00;97350.03;5426282;26;2302;-70
2024/04/09 07:33:37;;;;;;;;;;;10.60;99.90;;;9.93;100.00;97377.00;5427398;26;2898;-70
2024/04/09 07:36:06;;;;;;;;;;;10.60;99.90;;;9.90;100.00;97356.41;5424236;26;1278;-70
2024/04/09 07:38:33;;;;;;;;;;;10.60;99.90;;;9.95;100.00;97395.94;5428830;26;1342;-70
2024/04/09 07:41:00;;;;;;;;;;;10.50;99.90;;;9.77;100.00;97384.59;5421468;26;3025;-70
2024/04/09 07:43:28;;;;;;;;;;;10.60;99.90;;;9.90;100.00;97399.63;5424762;26;1080;-70
2024/04/09 07:46:01;;;;;;;;;;;10.50;99.90;;;9.60;100.00;97387.03;5423071;26;1316;-70
2024/04/09 07:48:28;;;;;;;;;;;10.50;99.90;;;9.65;100.00;97421.41;5431769;26;1889;-70
2024/04/09 07:50:56;;;;;;;;;;;10.30;99.90;;;9.66;100.00;97422.25;5415207;26;1295;-70
2024/04/09 07:53:23;;;;;;;;;;;10.40;99.90;;;9.56;100.00;97447.69;5425763;26;3867;-70
2024/04/09 07:55:50;;;;;;;;;;;10.30;99.90;;;9.57;100.00;97436.41;5425725;26;1238;-70
2024/04/09 07:58:17;;;;;;;;;;;10.30;99.90;;;9.56;100.00;97445.09;5423316;26;1249;-70
2024/04/09 08:00:44;;;;;;;;;;;10.20;99.90;;;9.40;100.00;97448.31;5427509;26;1115;-70
2024/04/09 08:03:11;;;;;;;;;;;10.10;99.90;;;9.22;100.00;97467.16;5439697;26;1702;-70
2024/04/09 08:05:39;;;;;;;;;;;10.10;99.90;;;9.27;100.00;97460.06;5424075;26;1559;-70
2024/04/09 08:08:07;;;;;;;;;;;10.00;99.90;;;9.17;100.00;97476.88;5428887;26;2683;-70
2024/04/09 08:10:34;;;;;;;;;;;10.00;99.90;;;9.13;100.00;97481.31;5429962;26;1263;-70
2024/04/09 08:13:01;;;;;;;;;;;9.90;99.90;;;9.12;100.00;97461.50;5428045;26;1337;-70
2024/04/09 08:15:29;;;;;;;;;;;9.90;99.90;;;8.96;100.00;97483.69;5427062;26;1226;-70
2024/04/09 08:17:56;;;;;;;;;;;9.70;99.90;;;8.92;100.00;97475.22;5429029;26;1105;-70
2024/04/09 08:20:24;;;;;;;;;;;9.70;99.90;;;8.84;100.00;97497.94;5436285;26;1182;-70
2024/04/09 08:22:52;;;;;;;;;;;9.70;99.90;;;8.68;100.00;97507.16;5428961;26;2171;-70
2024/04/09 08:25:19;;;;;;;;;;;9.50;99.90;;;8.82;100.00;97530.78;5427516;26;1270;-70
2024/04/09 08:27:47;;;;;;;;;;;9.60;99.90;;;8.78;100.00;97530.06;5426850;26;1842;-70
2024/04/09 08:30:17;;;;;;;;;;;9.50;99.90;;;8.82;100.00;97530.78;5442294;26;1336;-70
2024/04/09 08:32:50;;;;;;;;;;;9.40;99.90;;;8.74;100.00;97523.31;5430539;26;1380;-70
2024/04/09 08:35:17;;;;;;;;;;;9.50;99.90;;;8.72;100.00;97524.25;5431904;26;3735;-70
2024/04/09 08:37:44;;;;;;;;;;;9.50;99.90;;;8.69;100.00;97540.75;5428804;26;1506;-70
2024/04/09 08:40:13;;;;;;;;;;;9.60;99.90;;;8.79;100.00;97562.81;5425535;26;1341;-69
2024/04/09 08:42:44;;;;;;;;;;;9.70;99.90;;;8.68;100.00;97574.44;5433755;26;1547;-70
2024/04/09 08:45:14;;;;;;;;;;;9.70;99.90;;;8.72;100.00;97589.81;5428894;26;1469;-70
2024/04/09 08:47:43;;;;;;;;;;;9.50;99.90;;;8.52;100.00;97587.06;5423786;26;1888;-70
2024/04/09 08:50:12;;;;;;;;;;;9.50;99.90;;;8.63;100.00;97581.53;5425224;26;2777;-70
2024/04/09 08:52:40;;;;;;;;;;;9.60;99.90;;;8.78;100.00;97587.00;5425780;26;2828;-70
2024/04/09 08:55:08;;;;;;;;;;;9.50;99.90;;;8.57;100.00;97573.06;5425744;26;1726;-69
2024/04/09 08:57:35;;;;;;;;;;;9.60;99.90;;;8.63;100.00;97597.88;5433889;26;2135;-69
2024/04/09 09:00:06;;;;;;;;;;;9.40;99.90;;;8.57;100.00;97595.50;5428111;26;1426;-70
2024/04/09 09:02:35;;;;;;;;;;;9.50;99.90;;;8.61;100.00;97591.06;5459021;26;1775;-70
2024/04/09 09:05:02;;;;;;;;;;;9.50;99.90;;;8.60;100.00;97610.94;5439051;26;1751;-70
2024/04/09 09:07:29;;;;;;;;;;;9.30;99.90;;;8.41;100.00;97608.09;5440656;26;2340;-69
2024/04/09 09:10:00;;;;;;;;;;;9.30;99.90;;;8.28;100.00;97617.13;5409531;26;2518;-70
2024/04/09 09:12:27;;;;;;;;;;;9.10;99.90;;;8.25;100.00;97604.31;5424630;26;1188;-70
2024/04/09 09:15:00;;;;;;;;;;;9.10;99.90;;;8.23;100.00;97616.44;5422692;26;1595;-70
2024/04/09 09:17:31;;;;;;;;;;;9.20;99.90;;;8.25;100.00;97636.19;5434255;26;1510;-70
2024/04/09 09:20:00;;;;;;;;;;;9.10;99.90;;;8.37;100.00;97640.13;5423407;26;1649;-70
2024/04/09 09:22:35;;;;;;;;;;;9.20;99.90;;;8.44;100.00;97648.53;5425184;26;3967;-70
2024/04/09 09:25:05;;;;;;;;;;;9.20;99.90;;;8.52;100.00;97649.97;5432876;26;1540;-70
2024/04/09 09:27:35;;;;;;;;;;;9.20;99.90;;;8.44;100.00;97658.88;5427849;26;1146;-70
2024/04/09 09:30:02;;;;;;;;;;;9.20;99.90;;;8.37;100.00;97666.84;5426501;26;2933;-70
2024/04/09 09:32:29;;;;;;;;;;;9.40;99.90;;;8.49;100.00;97683.72;5427825;26;2968;-70
2024/04/09 09:35:00;;;;;;;;;;;9.30;99.90;;;8.27;100.00;97687.84;5432346;26;1653;-70
2024/04/09 09:37:28;;;;;;;;;;;9.20;99.90;;;8.32;100.00;97691.97;5425469;26;1623;-70
2024/04/09 09:39:55;;;;;;;;;;;9.20;99.90;;;8.24;100.00;97713.81;5434304;26;2700;-70
2024/04/09 09:42:24;;;;;;;;;;;9.10;99.90;;;8.11;100.00;97708.16;5440300;26;1634;-70
2024/04/09 09:44:52;;;;;;;;;;;9.10;99.90;;;8.04;100.00;97727.34;5425657;26;2773;-70
2024/04/09 09:47:19;;;;;;;;;;;9.00;99.90;;;7.99;100.00;97740.41;5430046;26;2777;-69
2024/04/09 09:49:47;;;;;;;;;;;8.80;99.90;;;8.03;100.00;97733.41;5437795;26;1850;-69
2024/04/09 09:52:21;;;;;;;;;;;8.80;99.90;;;7.94;100.00;97737.13;5439689;26;1517;-70
2024/04/09 09:54:48;;;;;;;;;;;8.90;99.90;;;7.75;100.00;97755.75;5434614;26;1243;-70
2024/04/09 09:57:21;;;;;;;;;;;8.70;99.90;;;7.89;100.00;97747.59;5421285;26;1148;-69
2024/04/09 09:59:57;;;;;;;;;;;8.80;99.90;;;7.84;100.00;97751.19;5426741;26;1601;-69
2024/04/09 10:02:27;;;;;;;;;;;8.70;99.90;;;7.70;100.00;97780.84;5427544;26;3695;-70
2024/04/09 10:04:59;;;;;;;;;;;8.60;99.90;;;7.70;100.00;97774.84;5441778;26;1257;-70
2024/04/09 10:07:27;;;;;;;;;;;8.60;99.90;;;7.65;100.00;97751.72;5432106;26;1586;-70
2024/04/09 10:09:54;;;;;;;;;;;8.60;99.90;;;7.76;100.00;97756.59;5429702;26;1901;-70
2024/04/09 10:12:22;;;;;;;;;;;8.60;99.90;;;7.70;100.00;97755.00;5423729;26;1714;-70
2024/04/09 10:15:11;;;;;;;;;;;8.70;99.90;;;7.77;100.00;97766.03;5437985;26;1685;-70
2024/04/09 10:17:48;;;;;;;;;;;8.60;99.90;;;7.69;100.00;97752.50;5424178;26;2290;-70
2024/04/09 10:20:26;;;;;;;;;;;8.70;99.90;;;7.69;100.00;97781.75;5429249;26;1363;-70
2024/04/09 10:22:55;;;;;;;;;;;8.80;99.90;;;7.59;100.00;97759.63;5426505;26;1361;-70
2024/04/09 10:25:25;;;;;;;;;;;8.60;99.90;;;7.64;100.00;97772.41;5431827;26;1468;-70
2024/04/09 10:28:09;;;;;;;;;;;8.60;99.90;;;7.50;100.00;97749.56;5423327;26;1376;-70
2024/04/09 10:30:37;;;;;;;;;;;8.50;99.90;;;7.70;100.00;97733.50;5425231;26;2605;-70
2024/04/09 10:33:06;;;;;;;;;;;8.50;99.90;;;7.62;100.00;97761.28;5430758;26;2750;-70
2024/04/09 10:35:33;;;;;;;;;;;8.60;99.90;;;7.81;100.00;97746.13;5426639;26;2622;-70
2024/04/09 10:38:04;;;;;;;;;;;8.70;99.90;;;7.79;100.00;97755.66;5428297;26;1820;-70
2024/04/09 10:40:36;;;;;;;;;;;8.60;99.90;;;7.81;100.00;97738.38;5431060;26;1269;-70
2024/04/09 10:43:07;;;;;;;;;;;8.70;99.90;;;8.04;100.00;97760.97;5424492;26;1755;-70
2024/04/09 10:45:35;;;;;;;;;;;8.60;99.90;;;7.85;100.00;97750.31;5426366;26;1258;-70
2024/04/09 10:48:22;;;;;;;;;;;8.70;99.90;;;8.04;100.00;97769.56;5428903;26;3781;-69
2024/04/09 10:50:53;;;;;;;;;;;8.80;99.90;;;8.21;100.00;97763.91;5425199;26;2696;-69
2024/04/09 10:53:20;;;;;;;;;;;8.90;99.90;;;8.46;100.00;97757.97;5431035;26;2887;-70
2024/04/09 10:55:47;;;;;;;;;;;8.90;99.90;;;8.31;100.00;97744.59;5426628;26;1529;-70
2024/04/09 10:58:15;;;;;;;;;;;9.00;99.90;;;8.39;100.00;97754.69;5424843;26;1219;-70
2024/04/09 11:00:48;;;;;;;;;;;8.90;99.90;;;8.34;100.00;97764.34;5431128;26;1684;-70
2024/04/09 11:03:19;;;;;;;;;;;9.10;99.90;;;8.34;100.00;97767.78;5436284;26;1938;-70
2024/04/09 11:05:51;;;;;;;;;;;9.00;99.90;;;8.36;100.00;97757.41;5455251;26;2792;-70
2024/04/09 11:08:30;;;;;;;;;;;9.00;99.90;;;8.46;100.00;97761.44;5423974;26;1270;-70
2024/04/09 11:11:00;;;;;;;;;;;9.00;99.90;;;8.64;100.00;97780.69;5427185;26;1115;-70
2024/04/09 11:13:28;;;;;;;;;;;9.00;99.90;;;8.54;100.00;97782.72;5434871;26;1602;-70
2024/04/09 11:15:56;;;;;;;;;;;9.10;99.90;;;8.45;100.00;97789.94;5424522;26;1600;-70
2024/04/09 11:18:23;;;;;;;;;;;9.00;99.90;;;8.48;100.00;97787.25;5458635;26;1570;-70
2024/04/09 11:20:59;;;;;;;;;;;9.00;99.90;;;8.35;100.00;97769.50;5427355;26;2564;-70
2024/04/09 11:23:31;;;;;;;;;;;9.00;99.90;;;8.35;100.00;97769.50;5433503;26;2720;-70
2024/04/09 11:25:59;;;;;;;;;;;9.10;99.90;;;8.34;100.00;97733.31;5452701;26;1854;-70
2024/04/09 11:28:26;;;;;;;;;;;9.10;99.90;;;8.43;100.00;97763.25;5430060;26;1557;-70